Aeroporto :
LOGIN :

Iscrizione | Disclaimer

   EN    FR    IT 

 










Sommario :    VFR   VFR Marginale   IFR   IFR Intensivo   IFR Molto Intensivo
Visibilità : 
Base nubi : 
>= 8 km
>= 3000ft
5 / 8 km
1000 / 3000 ft
1500m / 5 km
500 / 1000 ft
800 / 1500m
200 / 500 ft
< 800m
< 200 ft
Simboli :   Temporali  Nebbia  Neve Forte  Precipitazioni Forti  Vento > 20 kt
SIGMETs :   Varie  Temporali  Ghiacco  Turbolenza  Onda orograficha  Ceneri Vulcaniche






- Altitudine del aeroporto : 289 ft
- Codice IATA : ZAD


LDZD - Zadar

ULTIMO METAR :
  • 231330Z VRB03KT CAVOK 23/16 Q1019 NOSIG

METARs OBSOLETI :
  • 231300Z VRB02KT CAVOK 22/17 Q1019 NOSIG
  • 231230Z VRB03KT CAVOK 21/16 Q1020 NOSIG
  • 231200Z VRB03KT 9999 FEW020 21/17 Q1020 NOSIG
  • 231130Z VRB03KT 9999 SCT009 20/17 Q1021 NOSIG
  • 231100Z VRB03KT 9999 FEW005 BKN008 19/17 Q1021 BECMG SCT008

TAF TAF LDZD
Valido dal 23 a 12 ore il 24 a 12 ore UTC


231125Z 2312/2412 VRB02KT 9999 SCT008 TX25/2411Z TN10/2403Z
BECMG 2317/2319 3000 BCFG BKN006
TEMPO 2320/2406 0600 BKN003
PROB30
TEMPO 2320/2403 0300 FG VV002
BECMG 2406/2408 14008KT CAVOK



MetMap, La meteo Aeronautica in un colpo d'occhio ! - Copyright ORBIFLY Dicembre 2007 - Disclaimer

ORBIFLY MET'MAP TEAM :

Programmazione e sviluppo : Alexandra Zaïnal
Concezione e sviluppo : Baudouin d'Aumeries
Co-Programmazione e sviluppo : Marc-Olivier Méhu
Supporto tecnico e logistico : Manuel Goepfert
Aiuto per la traduzione : Arnaldo La Scala

Contatto : metmap@orbifly.com




FONTI E CREDITI :

   NOAA